createdAt,value
2023-01-05T00:00:25.622Z,99208.28
2023-01-05T00:05:27.307Z,99223.84
2023-01-05T00:10:48.699Z,99213.78
2023-01-05T00:16:08.950Z,99216.47
2023-01-05T00:21:33.777Z,99228.25
2023-01-05T00:26:35.373Z,99219.03
2023-01-05T00:31:37.045Z,99251.56
2023-01-05T00:36:40.700Z,99222.06
2023-01-05T00:41:42.397Z,99203.19
2023-01-05T00:46:43.998Z,99229.25
2023-01-05T00:51:45.624Z,99218.38
2023-01-05T00:56:49.534Z,99217.13
2023-01-05T01:01:52.846Z,99237.00
2023-01-05T01:06:54.794Z,99214.13
2023-01-05T01:11:56.546Z,99222.59
2023-01-05T01:16:58.510Z,99225.75
2023-01-05T01:22:01.918Z,99215.78
2023-01-05T01:27:03.800Z,99225.75
2023-01-05T01:32:05.521Z,99221.75
2023-01-05T01:37:07.170Z,99216.88
2023-01-05T01:42:15.732Z,99207.84
2023-01-05T01:47:24.609Z,99221.88
2023-01-05T01:52:29.411Z,99230.34
2023-01-05T01:57:33.099Z,99215.50
2023-01-05T02:02:34.852Z,99240.84
2023-01-05T02:07:44.897Z,99221.50
2023-01-05T02:13:01.669Z,99221.16
2023-01-05T02:18:21.470Z,99217.19
2023-01-05T02:23:41.872Z,99208.44
2023-01-05T02:29:11.156Z,99199.22
2023-01-05T02:34:16.532Z,99207.38
2023-01-05T02:39:35.113Z,99221.03
2023-01-05T02:44:39.594Z,99224.44
2023-01-05T02:49:41.313Z,99228.41
2023-01-05T02:54:57.721Z,99224.06
2023-01-05T02:59:59.830Z,99222.63
2023-01-05T03:05:11.402Z,99211.47
2023-01-05T03:10:33.630Z,99195.72
2023-01-05T03:15:39.874Z,99209.19
2023-01-05T03:20:46.349Z,99205.28
2023-01-05T03:26:10.007Z,99210.28
2023-01-05T03:31:49.346Z,99199.94
2023-01-05T03:36:58.158Z,99210.91
2023-01-05T03:42:00.281Z,99208.88
2023-01-05T03:47:03.199Z,99192.88
2023-01-05T03:52:05.344Z,99226.66
2023-01-05T03:57:08.088Z,99208.88
2023-01-05T04:02:10.247Z,99220.47
2023-01-05T04:07:12.614Z,99230.63
2023-01-05T04:12:15.196Z,99229.91
2023-01-05T04:17:19.227Z,99245.94
2023-01-05T04:22:27.157Z,99265.03
2023-01-05T04:27:30.014Z,99259.72
2023-01-05T04:32:31.752Z,99263.91
2023-01-05T04:37:33.563Z,99264.09
2023-01-05T04:42:35.962Z,99275.25
2023-01-05T04:47:37.871Z,99283.88
2023-01-05T04:52:39.967Z,99284.41
2023-01-05T04:57:42.917Z,99292.78
2023-01-05T05:02:48.136Z,99306.34
2023-01-05T05:07:50.585Z,99295.88
2023-01-05T05:12:53.023Z,99281.28
2023-01-05T05:17:55.026Z,99278.69
2023-01-05T05:22:57.588Z,99298.63
2023-01-05T05:27:59.691Z,99312.00
2023-01-05T05:33:01.354Z,99315.47
2023-01-05T05:38:02.969Z,99324.47
2023-01-05T05:43:04.586Z,99320.56
2023-01-05T05:48:06.424Z,99326.84
2023-01-05T05:53:08.105Z,99333.91
2023-01-05T05:58:09.743Z,99330.72
2023-01-05T06:03:11.536Z,99345.75
2023-01-05T06:08:13.271Z,99335.66
2023-01-05T06:13:15.415Z,99331.22
2023-01-05T06:18:17.399Z,99331.97
2023-01-05T06:23:19.063Z,99347.28
2023-01-05T06:28:20.659Z,99350.13
2023-01-05T06:33:22.364Z,99359.34
2023-01-05T06:38:24.381Z,99344.22
2023-01-05T06:43:26.016Z,99352.91
2023-01-05T06:48:27.654Z,99361.91
2023-01-05T06:53:29.299Z,99366.28
2023-01-05T06:58:30.938Z,99379.19
2023-01-05T07:03:32.576Z,99383.81
2023-01-05T07:08:34.222Z,99360.63
2023-01-05T07:13:36.601Z,99399.31
2023-01-05T07:18:38.205Z,99399.97
2023-01-05T07:23:39.880Z,99391.06
2023-01-05T07:28:41.587Z,99405.06
2023-01-05T07:33:43.226Z,99414.16
2023-01-05T07:38:44.812Z,99432.16
2023-01-05T07:43:50.145Z,99432.50
2023-01-05T07:48:51.751Z,99417.66
2023-01-05T07:53:55.398Z,99426.63
2023-01-05T07:58:57.010Z,99434.84
2023-01-05T08:03:58.671Z,99438.91
2023-01-05T08:09:20.267Z,99436.47
2023-01-05T08:14:21.871Z,99428.13
2023-01-05T08:19:23.514Z,99443.91
2023-01-05T08:24:25.134Z,99448.56
2023-01-05T08:29:27.058Z,99451.72
2023-01-05T08:34:34.262Z,99461.47
2023-01-05T08:39:36.447Z,99469.06
2023-01-05T08:44:38.075Z,99490.56
2023-01-05T08:49:39.775Z,99489.31
2023-01-05T08:54:41.435Z,99499.75
2023-01-05T08:59:43.030Z,99505.38
2023-01-05T09:04:44.744Z,99509.38
2023-01-05T09:09:46.367Z,99523.13
2023-01-05T09:14:48.056Z,99507.91
2023-01-05T09:19:49.677Z,99519.88
2023-01-05T09:24:51.278Z,99518.34
2023-01-05T09:29:52.952Z,99528.22
2023-01-05T09:34:54.560Z,99523.38
2023-01-05T09:39:56.180Z,99524.50
2023-01-05T09:45:03.489Z,99543.44
2023-01-05T09:50:18.861Z,99539.81
2023-01-05T09:55:23.683Z,99545.06
2023-01-05T10:00:26.985Z,99515.13
2023-01-05T10:05:30.780Z,99555.16
2023-01-05T10:10:41.453Z,99552.97
2023-01-05T10:15:49.701Z,99560.31
2023-01-05T10:21:06.630Z,99569.16
2023-01-05T10:26:24.872Z,99557.53
2023-01-05T10:31:47.475Z,99583.44
2023-01-05T10:37:11.829Z,99575.84
2023-01-05T10:42:34.674Z,99580.97
2023-01-05T10:47:39.113Z,99588.81
2023-01-05T10:52:40.972Z,99587.78
2023-01-05T10:57:43.053Z,99590.72
2023-01-05T11:02:51.305Z,99591.09
2023-01-05T11:07:56.271Z,99586.91
2023-01-05T11:13:20.314Z,99565.53
2023-01-05T11:18:36.424Z,99582.91
2023-01-05T11:23:59.272Z,99586.28
2023-01-05T11:29:09.938Z,99586.19
2023-01-05T11:34:20.035Z,99585.16
2023-01-05T11:39:31.608Z,99596.81
2023-01-05T11:44:34.702Z,99588.13
2023-01-05T11:49:37.264Z,99605.13
2023-01-05T11:54:40.307Z,99599.78
2023-01-05T11:59:42.470Z,99609.69
2023-01-05T12:04:57.304Z,99606.13
2023-01-05T12:10:29.867Z,99622.53
2023-01-05T12:15:56.104Z,99614.75
2023-01-05T12:21:17.191Z,99616.28
2023-01-05T12:26:25.130Z,99621.72
2023-01-05T12:37:25.373Z,99603.75
2023-01-05T12:42:31.888Z,99641.00
2023-01-05T12:47:41.500Z,99656.22
2023-01-05T12:52:48.741Z,99661.31
2023-01-05T12:58:13.842Z,99666.22
2023-01-05T13:03:34.100Z,99642.94
2023-01-05T13:08:46.600Z,99650.22
2023-01-05T13:13:53.360Z,99655.22
2023-01-05T13:19:18.258Z,99652.00
2023-01-05T13:24:31.301Z,99661.69
2023-01-05T13:29:40.274Z,99669.97
2023-01-05T13:35:00.569Z,99682.94
2023-01-05T13:40:10.880Z,99682.50
2023-01-05T13:45:37.049Z,99695.50
2023-01-05T13:50:54.804Z,99706.22
2023-01-05T13:56:01.999Z,99717.28
2023-01-05T14:01:06.525Z,99732.94
2023-01-05T14:06:24.993Z,99737.00
2023-01-05T14:11:28.697Z,99736.84
2023-01-05T14:16:33.347Z,99770.94
2023-01-05T14:22:19.379Z,99787.53
2023-01-05T14:27:23.099Z,99805.00
2023-01-05T14:32:36.586Z,99816.91
2023-01-05T14:37:54.906Z,99814.03
2023-01-05T14:42:57.456Z,99822.38
2023-01-05T14:48:07.470Z,99827.53
2023-01-05T14:53:39.755Z,99842.44
2023-01-05T14:58:41.364Z,99859.66
2023-01-05T15:04:04.144Z,99860.13
2023-01-05T15:09:30.211Z,99871.91
2023-01-05T15:14:44.112Z,99882.53
2023-01-05T15:19:45.668Z,99901.16
2023-01-05T15:25:21.042Z,99902.56
2023-01-05T15:30:36.247Z,99900.47
2023-01-05T15:35:51.110Z,99908.94
2023-01-05T15:41:08.376Z,99914.22
2023-01-05T15:46:11.179Z,99922.75
2023-01-05T15:51:28.678Z,99921.19
2023-01-05T15:56:40.773Z,99930.84
2023-01-05T16:01:42.398Z,99930.84
2023-01-05T16:06:49.778Z,99935.22
2023-01-05T16:11:56.908Z,99954.13
2023-01-05T16:17:12.074Z,99960.59
2023-01-05T16:22:20.217Z,99969.13
2023-01-05T16:27:21.959Z,99968.28
2023-01-05T16:32:36.843Z,99974.00
2023-01-05T16:37:38.497Z,99976.16
2023-01-05T16:42:48.418Z,99983.34
2023-01-05T16:47:50.477Z,99995.50
2023-01-05T16:52:57.601Z,100000.53
2023-01-05T16:58:00.625Z,100000.72
2023-01-05T17:03:28.565Z,100021.38
2023-01-05T17:08:32.010Z,100019.09
2023-01-05T17:13:41.365Z,100028.63
2023-01-05T17:18:43.039Z,100021.88
2023-01-05T17:23:53.188Z,100036.84
2023-01-05T17:28:58.443Z,100037.25
2023-01-05T17:34:00.635Z,100038.41
2023-01-05T17:39:03.013Z,100045.91
2023-01-05T17:44:04.789Z,100048.41
2023-01-05T17:49:07.846Z,100062.22
2023-01-05T17:54:09.828Z,100062.88
2023-01-05T17:59:11.447Z,100069.69
2023-01-05T18:04:13.098Z,100062.75
2023-01-05T18:09:14.700Z,100069.84
2023-01-05T18:14:16.309Z,100074.50
2023-01-05T18:19:17.980Z,100080.50
2023-01-05T18:24:19.775Z,100083.94
2023-01-05T18:29:22.057Z,100094.50
2023-01-05T18:34:23.694Z,100107.28
2023-01-05T18:39:26.166Z,100114.94
2023-01-05T18:44:27.929Z,100125.88
2023-01-05T18:49:29.573Z,100131.03
2023-01-05T18:54:31.247Z,100143.03
2023-01-05T18:59:32.889Z,100142.94
2023-01-05T19:04:34.539Z,100149.13
2023-01-05T19:09:36.454Z,100149.41
2023-01-05T19:14:38.057Z,100150.69
2023-01-05T19:19:39.714Z,100141.50
2023-01-05T19:24:41.317Z,100141.97
2023-01-05T19:29:42.951Z,100136.31
2023-01-05T19:34:44.656Z,100139.41
2023-01-05T19:39:46.276Z,100140.38
2023-01-05T19:44:48.040Z,100146.28
2023-01-05T19:49:49.688Z,100147.81
2023-01-05T19:54:51.291Z,100154.78
2023-01-05T19:59:52.891Z,100158.41
2023-01-05T20:04:54.571Z,100165.59
2023-01-05T20:09:58.193Z,100158.41
2023-01-05T20:14:59.806Z,100165.91
2023-01-05T20:20:01.441Z,100181.78
2023-01-05T20:25:03.469Z,100187.47
2023-01-05T20:30:05.568Z,100192.38
2023-01-05T20:35:07.351Z,100193.94
2023-01-05T20:40:09.521Z,100198.31
2023-01-05T20:45:11.233Z,100211.53
2023-01-05T20:50:12.844Z,100215.50
2023-01-05T20:55:17.881Z,100220.56
2023-01-05T21:00:20.413Z,100221.69
2023-01-05T21:05:22.111Z,100219.91
2023-01-05T21:10:23.745Z,100231.84
2023-01-05T21:15:25.442Z,100234.97
2023-01-05T21:20:29.886Z,100242.84
2023-01-05T21:26:05.620Z,100244.41
2023-01-05T21:30:53.124Z,100253.41
2023-01-05T21:35:56.174Z,100248.91
2023-01-05T21:41:06.425Z,100245.94
2023-01-05T21:46:11.950Z,100252.00
2023-01-05T21:51:32.280Z,100250.72
2023-01-05T21:56:39.512Z,100249.88
2023-01-05T22:01:41.116Z,100249.03
2023-01-05T22:06:42.734Z,100250.03
2023-01-05T22:11:44.644Z,100256.78
2023-01-05T22:16:46.270Z,100245.13
2023-01-05T22:21:47.865Z,100251.72
2023-01-05T22:26:49.530Z,100259.91
2023-01-05T22:31:51.219Z,100252.28
2023-01-05T22:36:53.476Z,100249.91
2023-01-05T22:41:55.345Z,100254.41
2023-01-05T22:46:57.463Z,100256.09
2023-01-05T22:51:59.183Z,100255.09
2023-01-05T22:57:00.787Z,100256.66
2023-01-05T23:02:02.394Z,100266.50
2023-01-05T23:07:04.390Z,100277.19
2023-01-05T23:12:06.200Z,100277.50
2023-01-05T23:17:12.234Z,100272.41
2023-01-05T23:22:13.865Z,100279.88
2023-01-05T23:27:15.487Z,100274.81
2023-01-05T23:32:17.107Z,100269.06
2023-01-05T23:37:18.731Z,100280.59
2023-01-05T23:42:38.877Z,100271.75
2023-01-05T23:47:40.587Z,100272.44
2023-01-05T23:52:42.189Z,100270.75
2023-01-05T23:57:43.846Z,100272.00
